Time;durP1;ratioP1;P1;durP2;ratioP2;P2;SDS_P1;SDS_P2;PMS_P1;PMS_P2;Temp;Humidity;BMP_temperature;BMP_pressure;BME280_temperature;BME280_humidity;BME280_pressure;Samples;Min_cycle;Max_cycle;Signal;HPM_P1;HPM_P2
2024/01/06 00:01:48;;;;;;;7.43;4.73;;;;;6.40;99870.00;;;;9909778;29;20661;-84
2024/01/06 00:06:49;;;;;;;8.00;4.27;;;;;6.40;99865.00;;;;9907184;29;20288;-84
2024/01/06 00:11:51;;;;;;;6.80;4.60;;;;;6.40;99875.00;;;;9894872;29;20789;-84
2024/01/06 00:16:52;;;;;;;11.60;5.23;;;;;6.40;99871.00;;;;9897055;29;20243;-84
2024/01/06 00:21:53;;;;;;;9.47;6.10;;;;;6.40;99883.00;;;;9921787;29;20257;-84
2024/01/06 00:26:54;;;;;;;10.70;6.23;;;;;6.40;99883.00;;;;9889843;29;20226;-83
2024/01/06 00:31:55;;;;;;;8.90;6.87;;;;;6.40;99887.00;;;;9890809;29;20238;-83
2024/01/06 00:36:56;;;;;;;10.97;7.63;;;;;6.40;99893.00;;;;9883049;29;20227;-84
2024/01/06 00:41:57;;;;;;;10.70;6.30;;;;;6.40;99896.00;;;;9879899;29;20238;-82
2024/01/06 00:46:59;;;;;;;8.97;6.47;;;;;6.40;99890.00;;;;9904975;29;20234;-83
2024/01/06 00:52:00;;;;;;;10.57;7.20;;;;;6.40;99895.00;;;;9873977;29;20321;-84
2024/01/06 00:57:01;;;;;;;10.97;6.47;;;;;6.40;99899.00;;;;9892212;29;20337;-83
2024/01/06 01:02:03;;;;;;;11.53;7.27;;;;;6.40;99891.00;;;;9874508;29;20235;-84
2024/01/06 01:07:04;;;;;;;8.27;6.20;;;;;6.40;99899.00;;;;9855855;29;20243;-84
2024/01/06 01:12:05;;;;;;;8.90;6.20;;;;;6.40;99902.00;;;;9860211;29;20235;-80
2024/01/06 01:17:06;;;;;;;9.13;6.00;;;;;6.40;99903.00;;;;9851908;29;20269;-79
2024/01/06 01:22:08;;;;;;;8.97;6.20;;;;;6.40;99910.00;;;;9851157;29;20318;-78
2024/01/06 01:27:09;;;;;;;7.37;4.20;;;;;6.40;99912.00;;;;9839351;29;20308;-79
2024/01/06 01:32:10;;;;;;;9.47;4.80;;;;;6.40;99919.00;;;;9851224;29;20233;-78
2024/01/06 01:37:11;;;;;;;5.33;4.13;;;;;6.40;99918.00;;;;9856050;29;20231;-79
2024/01/06 01:42:13;;;;;;;9.43;3.97;;;;;6.40;99924.00;;;;9883592;29;20357;-79
2024/01/06 01:47:18;;;;;;;6.63;4.00;;;;;6.40;99928.00;;;;9850419;29;20227;-80
2024/01/06 01:52:19;;;;;;;6.00;3.83;;;;;6.40;99935.00;;;;9850135;29;20227;-80
2024/01/06 01:57:22;;;;;;;6.53;4.10;;;;;6.40;99940.00;;;;9848045;29;20235;-79
2024/01/06 02:08:50;;;;;;;7.30;5.00;;;;;6.40;99960.00;;;;11764662;24;21145;31
2024/01/06 02:14:32;;;;;;;9.53;7.00;;;;;6.40;99967.00;;;;9911680;24;20453;31
2024/01/06 02:26:14;;;;;;;14.70;9.00;;;;;6.40;99972.00;;;;2816099;24;20214;31
2024/01/06 02:37:28;;;;;;;10.10;7.57;;;;;6.40;99980.00;;;;11911106;24;20427;31
2024/01/06 02:48:33;;;;;;;11.43;7.93;;;;;6.40;100001.00;;;;9964717;24;20440;-89
2024/01/06 02:59:40;;;;;;;10.40;7.00;;;;;6.40;100007.00;;;;10308781;24;20278;-85
2024/01/06 03:04:42;;;;;;;7.77;6.83;;;;;6.40;100006.00;;;;9898617;29;20227;-86
2024/01/06 03:09:44;;;;;;;9.63;7.63;;;;;6.40;100017.00;;;;9900438;29;20235;-86
2024/01/06 03:14:45;;;;;;;12.77;8.70;;;;;6.40;100031.00;;;;9891170;29;20254;-87
2024/01/06 03:19:46;;;;;;;11.00;7.30;;;;;6.40;100033.00;;;;9897113;29;20235;-81
2024/01/06 03:24:47;;;;;;;9.97;7.30;;;;;6.40;100037.00;;;;9902717;29;20258;-82
2024/01/06 03:29:48;;;;;;;13.53;7.60;;;;;6.40;100035.00;;;;9900798;29;20317;-82
2024/01/06 03:34:50;;;;;;;13.13;8.90;;;;;6.40;100050.00;;;;9888121;29;20234;-82
2024/01/06 03:39:51;;;;;;;15.57;9.37;;;;;6.40;100053.00;;;;9882546;29;20246;-83
2024/01/06 03:44:52;;;;;;;18.33;9.27;;;;;6.30;100063.00;;;;9885576;29;20685;-83
2024/01/06 03:49:54;;;;;;;17.30;9.63;;;;;6.30;100064.00;;;;9915930;29;20863;-82
2024/01/06 03:54:56;;;;;;;20.77;11.03;;;;;6.30;100063.00;;;;9875194;29;20236;-83
2024/01/06 03:59:57;;;;;;;19.93;11.50;;;;;6.30;100077.00;;;;9875150;29;20649;-82
2024/01/06 04:04:58;;;;;;;22.13;12.67;;;;;6.20;100083.00;;;;9917483;29;20234;-83
2024/01/06 04:10:00;;;;;;;22.13;11.57;;;;;6.10;100087.00;;;;9879332;29;20242;-81
2024/01/06 04:15:02;;;;;;;23.93;12.50;;;;;6.10;100096.00;;;;9886744;29;20845;-82
2024/01/06 04:20:04;;;;;;;20.57;11.77;;;;;6.10;100098.00;;;;9883417;29;20238;-82
2024/01/06 04:25:05;;;;;;;19.43;10.97;;;;;6.00;100102.00;;;;9907526;29;20265;-81
2024/01/06 04:30:06;;;;;;;20.17;12.13;;;;;6.00;100101.00;;;;9886845;29;20326;-84
2024/01/06 04:35:08;;;;;;;21.80;11.93;;;;;6.00;100109.00;;;;9899563;29;20230;-84
2024/01/06 04:40:10;;;;;;;20.80;11.43;;;;;6.00;100114.00;;;;9895849;29;20296;-83
2024/01/06 04:45:12;;;;;;;15.83;9.87;;;;;6.00;100113.00;;;;9889160;29;20238;-84
2024/01/06 04:50:13;;;;;;;19.47;10.30;;;;;6.00;100124.00;;;;9897132;29;21010;-83
2024/01/06 04:55:15;;;;;;;17.53;9.60;;;;;5.90;100123.00;;;;9892914;29;20242;-83
2024/01/06 05:00:16;;;;;;;15.67;9.40;;;;;5.90;100131.00;;;;9876986;29;20264;-84
2024/01/06 05:05:18;;;;;;;17.10;9.37;;;;;6.00;100130.00;;;;9871891;29;20263;-82
2024/01/06 05:10:19;;;;;;;20.40;9.03;;;;;6.00;100140.00;;;;9905717;29;20242;-83
2024/01/06 05:15:20;;;;;;;14.07;9.27;;;;;5.90;100146.00;;;;9874711;29;20237;-84
2024/01/06 05:20:21;;;;;;;16.20;9.30;;;;;5.90;100144.00;;;;9889429;29;21136;-83
2024/01/06 05:25:23;;;;;;;14.30;10.10;;;;;5.90;100160.00;;;;9881925;29;20291;-83
2024/01/06 05:30:24;;;;;;;19.63;10.43;;;;;5.80;100162.00;;;;9869916;29;20230;-83
2024/01/06 05:35:25;;;;;;;15.93;10.07;;;;;5.80;100165.00;;;;9890691;29;20771;-82
2024/01/06 05:40:27;;;;;;;19.83;11.37;;;;;5.80;100173.00;;;;9866136;29;20347;-79
2024/01/06 05:45:28;;;;;;;18.67;10.37;;;;;5.80;100177.00;;;;9873565;29;20766;-81
2024/01/06 05:50:32;;;;;;;16.27;9.93;;;;;5.80;100184.00;;;;9887603;29;20560;-79
2024/01/06 05:55:33;;;;;;;17.23;10.70;;;;;5.80;100190.00;;;;9901463;29;20322;-78
2024/01/06 06:00:35;;;;;;;16.17;10.03;;;;;5.80;100199.00;;;;9863921;29;20317;-78
2024/01/06 06:05:36;;;;;;;17.10;9.80;;;;;5.70;100203.00;;;;9866371;29;20261;-79
2024/01/06 06:10:41;;;;;;;14.53;8.43;;;;;5.70;100213.00;;;;9869830;29;20234;-79
2024/01/06 06:15:42;;;;;;;16.00;7.40;;;;;5.60;100219.00;;;;9896630;29;20249;-78
2024/01/06 06:20:44;;;;;;;15.90;7.80;;;;;5.50;100229.00;;;;9883933;29;20690;-80
2024/01/06 06:25:45;;;;;;;11.67;7.83;;;;;5.50;100242.00;;;;9869780;29;20672;-79
2024/01/06 06:30:46;;;;;;;19.17;9.50;;;;;5.50;100251.00;;;;9871546;29;20303;-79
2024/01/06 06:35:47;;;;;;;13.97;8.37;;;;;5.40;100260.00;;;;9883897;29;20351;-79
2024/01/06 06:40:48;;;;;;;15.83;8.30;;;;;5.30;100259.00;;;;9882042;29;20234;-78
2024/01/06 06:45:50;;;;;;;12.57;8.10;;;;;5.30;100272.00;;;;9889783;29;20781;-79
2024/01/06 06:50:52;;;;;;;13.20;7.70;;;;;5.20;100285.00;;;;9892278;29;20285;-81
2024/01/06 06:55:53;;;;;;;8.40;6.87;;;;;5.10;100300.00;;;;9880851;29;20319;-82
2024/01/06 07:00:54;;;;;;;11.17;7.53;;;;;5.00;100291.00;;;;9869933;29;20234;-81
2024/01/06 07:05:56;;;;;;;8.50;5.83;;;;;5.00;100306.00;;;;9867361;29;20242;-81
2024/01/06 07:10:57;;;;;;;14.57;6.87;;;;;5.00;100312.00;;;;9856398;29;20235;-81
2024/01/06 07:15:58;;;;;;;15.07;7.70;;;;;5.00;100323.00;;;;9881011;29;20338;-82
2024/01/06 07:21:18;;;;;;;10.93;8.73;;;;;5.00;100326.00;;;;9891394;29;20322;-81
2024/01/06 07:26:19;;;;;;;11.37;7.70;;;;;4.90;100339.00;;;;9865891;29;20274;-82
2024/01/06 07:31:20;;;;;;;16.70;8.93;;;;;4.90;100350.00;;;;9881170;29;20238;-81
2024/01/06 07:36:22;;;;;;;15.57;8.50;;;;;4.80;100351.00;;;;9890956;29;20238;-81
2024/01/06 07:41:23;;;;;;;15.43;9.47;;;;;4.90;100363.00;;;;9886832;29;20235;-81
2024/01/06 07:46:24;;;;;;;14.97;8.80;;;;;4.90;100364.00;;;;9892969;29;20237;-81
2024/01/06 07:51:31;;;;;;;16.03;9.10;;;;;4.90;100369.00;;;;9871449;29;20313;-81
2024/01/06 07:56:32;;;;;;;14.83;8.63;;;;;4.90;100379.00;;;;9896204;29;20258;-82
2024/01/06 08:01:33;;;;;;;14.93;9.37;;;;;4.90;100397.00;;;;9873048;29;20695;-79
2024/01/06 08:06:35;;;;;;;13.10;9.23;;;;;4.90;100397.00;;;;9886887;29;20594;-79
2024/01/06 08:11:36;;;;;;;13.80;9.50;;;;;4.90;100406.00;;;;9872224;29;20236;-78
2024/01/06 08:16:38;;;;;;;16.97;8.97;;;;;4.90;100423.00;;;;9911696;29;20268;-79
2024/01/06 08:21:39;;;;;;;15.27;9.10;;;;;4.90;100430.00;;;;9909162;29;20823;-82
2024/01/06 08:26:40;;;;;;;16.20;9.53;;;;;4.90;100436.00;;;;9888740;29;20219;-79
2024/01/06 08:31:41;;;;;;;13.83;9.23;;;;;5.00;100437.00;;;;9873022;29;21081;-79
2024/01/06 08:36:42;;;;;;;13.73;8.70;;;;;5.00;100452.00;;;;9885491;29;20287;-78
2024/01/06 08:41:44;;;;;;;14.90;10.37;;;;;5.10;100449.00;;;;9903118;29;20652;-78
2024/01/06 08:46:45;;;;;;;14.90;8.63;;;;;5.10;100463.00;;;;9893472;29;20234;-78
2024/01/06 08:51:46;;;;;;;14.40;9.50;;;;;5.10;100471.00;;;;9872386;29;20309;-79
2024/01/06 08:56:52;;;;;;;14.93;9.93;;;;;5.10;100480.00;;;;9873709;29;20239;-80
2024/01/06 09:01:53;;;;;;;17.10;10.30;;;;;5.10;100488.00;;;;9898139;29;20246;-80
2024/01/06 09:06:54;;;;;;;14.63;9.70;;;;;5.00;100494.00;;;;9880650;29;20231;-80
2024/01/06 09:11:56;;;;;;;11.77;8.03;;;;;5.00;100507.00;;;;9874406;29;20247;-81
2024/01/06 09:16:57;;;;;;;12.80;8.07;;;;;4.90;100514.00;;;;9869511;29;20234;-82
2024/01/06 09:21:58;;;;;;;15.97;8.73;;;;;4.90;100520.00;;;;9885715;29;20266;-82
2024/01/06 09:26:59;;;;;;;12.97;7.60;;;;;5.00;100524.00;;;;9886040;29;20818;-81
2024/01/06 09:32:02;;;;;;;14.83;8.07;;;;;5.00;100532.00;;;;9886534;29;20380;-83
2024/01/06 09:37:03;;;;;;;11.87;7.53;;;;;5.00;100532.00;;;;9890211;29;20227;-82
2024/01/06 09:42:05;;;;;;;11.73;6.90;;;;;5.00;100542.00;;;;9887096;29;20235;-82
2024/01/06 09:47:08;;;;;;;16.80;10.40;;;;;5.10;100550.00;;;;9877075;29;20228;-81
2024/01/06 09:52:15;;;;;;;14.07;9.50;;;;;5.10;100561.00;;;;9907201;29;20863;-81
2024/01/06 09:57:17;;;;;;;13.10;8.70;;;;;5.00;100571.00;;;;9864998;29;20222;-82
2024/01/06 10:02:20;;;;;;;9.17;5.70;;;;;5.00;100566.00;;;;9901438;29;20239;-81
2024/01/06 10:07:21;;;;;;;9.13;5.13;;;;;4.90;100573.00;;;;9879291;29;20297;-81
2024/01/06 10:12:25;;;;;;;13.23;6.77;;;;;4.80;100578.00;;;;9868391;29;20246;-81
2024/01/06 10:17:26;;;;;;;7.87;6.33;;;;;4.80;100583.00;;;;9879226;29;20246;-81
2024/01/06 10:22:27;;;;;;;9.77;6.07;;;;;4.80;100601.00;;;;9885781;29;20239;-89
2024/01/06 10:27:29;;;;;;;8.67;6.77;;;;;4.90;100605.00;;;;9868621;29;20280;-88
2024/01/06 10:32:32;;;;;;;8.97;5.17;;;;;4.90;100618.00;;;;9899702;29;20233;-90
2024/01/06 10:37:33;;;;;;;8.97;6.00;;;;;4.90;100614.00;;;;9921343;29;20238;-87
2024/01/06 10:42:36;;;;;;;10.50;6.33;;;;;4.90;100619.00;;;;9882100;29;20354;-87
2024/01/06 10:47:38;;;;;;;8.57;5.37;;;;;5.00;100614.00;;;;9906338;29;20230;-88
2024/01/06 10:52:41;;;;;;;11.20;5.83;;;;;4.90;100624.00;;;;9896299;29;20227;-88
2024/01/06 10:57:43;;;;;;;5.97;5.13;;;;;4.90;100621.00;;;;9869043;29;20343;-88
2024/01/06 11:02:46;;;;;;;9.30;6.53;;;;;4.90;100619.00;;;;9884781;29;20242;-88
2024/01/06 11:07:51;;;;;;;9.47;6.27;;;;;4.90;100625.00;;;;9897093;29;20234;-87
2024/01/06 11:13:13;;;;;;;10.80;6.83;;;;;4.90;100636.00;;;;9880064;29;20242;-88
2024/01/06 11:18:34;;;;;;;9.73;6.30;;;;;4.80;100638.00;;;;9900825;29;20873;-87
2024/01/06 11:23:36;;;;;;;11.10;7.10;;;;;4.80;100636.00;;;;9916043;29;20737;-89
2024/01/06 11:28:47;;;;;;;10.13;6.87;;;;;4.70;100647.00;;;;9867987;29;20249;-88
2024/01/06 11:33:51;;;;;;;11.33;6.93;;;;;4.70;100642.00;;;;9884169;29;20265;-87
2024/01/06 11:38:52;;;;;;;10.63;7.07;;;;;4.60;100648.00;;;;9883793;29;20283;-87
2024/01/06 11:43:53;;;;;;;11.30;7.17;;;;;4.60;100643.00;;;;9865507;29;20257;-88
2024/01/06 11:48:55;;;;;;;10.77;7.27;;;;;4.60;100646.00;;;;9885735;29;20227;-88
2024/01/06 11:53:57;;;;;;;13.03;8.60;;;;;4.50;100645.00;;;;9885650;29;20231;-87
2024/01/06 11:58:58;;;;;;;10.83;7.27;;;;;4.50;100645.00;;;;9871246;29;20639;-89
2024/01/06 12:04:00;;;;;;;13.53;8.13;;;;;4.60;100649.00;;;;9878920;29;20910;-86
2024/01/06 12:09:15;;;;;;;10.87;7.87;;;;;4.60;100640.00;;;;9884693;29;20227;-88
2024/01/06 12:14:16;;;;;;;11.17;7.80;;;;;4.60;100639.00;;;;9882858;29;20242;-89
2024/01/06 12:19:17;;;;;;;13.60;8.00;;;;;4.70;100651.00;;;;9871142;29;20236;-88
2024/01/06 12:24:22;;;;;;;11.37;8.33;;;;;4.70;100642.00;;;;9883818;29;20276;-88
2024/01/06 12:29:28;;;;;;;15.03;9.83;;;;;4.70;100635.00;;;;9887356;29;20239;-88
2024/01/06 12:34:30;;;;;;;12.10;7.90;;;;;4.70;100638.00;;;;9886592;29;20230;-88
2024/01/06 12:39:32;;;;;;;10.77;7.87;;;;;4.70;100633.00;;;;9897100;29;20231;-82
2024/01/06 12:44:36;;;;;;;9.63;7.43;;;;;4.60;100629.00;;;;9879206;29;20235;-82
2024/01/06 12:49:38;;;;;;;10.57;7.87;;;;;4.50;100637.00;;;;9892982;29;20456;-82
2024/01/06 12:54:40;;;;;;;9.53;7.20;;;;;4.60;100640.00;;;;9885327;29;20991;-82
2024/01/06 12:59:44;;;;;;;9.50;6.83;;;;;4.50;100636.00;;;;9885991;29;20253;-82
2024/01/06 13:04:45;;;;;;;10.33;7.60;;;;;4.50;100646.00;;;;9890152;29;20273;-81
2024/01/06 13:09:47;;;;;;;10.03;7.33;;;;;4.50;100649.00;;;;9882816;29;20382;-81
2024/01/06 13:14:49;;;;;;;13.50;7.63;;;;;4.50;100656.00;;;;9883354;29;21106;-81
2024/01/06 13:19:50;;;;;;;10.80;7.07;;;;;4.50;100667.00;;;;9868659;29;20235;-81
2024/01/06 13:24:51;;;;;;;9.87;7.30;;;;;4.50;100660.00;;;;9881527;29;21053;-82
2024/01/06 13:29:55;;;;;;;9.70;7.30;;;;;4.50;100668.00;;;;9865251;29;20231;-81
2024/01/06 13:35:04;;;;;;;9.80;7.27;;;;;4.60;100680.00;;;;9895154;29;20678;-81
2024/01/06 13:40:07;;;;;;;11.37;7.07;;;;;4.50;100683.00;;;;9891057;29;20640;-82
2024/01/06 13:45:08;;;;;;;8.03;6.23;;;;;4.40;100684.00;;;;9868782;29;20257;-82
2024/01/06 13:50:10;;;;;;;8.47;5.80;;;;;4.40;100685.00;;;;9882871;29;20258;-86
2024/01/06 13:55:12;;;;;;;8.20;5.60;;;;;4.40;100691.00;;;;9913466;29;20247;-89
2024/01/06 14:00:18;;;;;;;7.73;5.57;;;;;4.40;100697.00;;;;9944303;24;20248;-86
2024/01/06 14:05:44;;;;;;;8.90;5.60;;;;;4.50;100700.00;;;;11192858;24;21294;31
2024/01/06 14:16:43;;;;;;;7.53;5.63;;;;;4.50;100711.00;;;;10298072;24;20214;31
2024/01/06 14:21:44;;;;;;;9.13;6.07;;;;;4.40;100713.00;;;;10659731;24;20224;-85
2024/01/06 14:26:45;;;;;;;8.60;6.27;;;;;4.40;100720.00;;;;9853978;29;20475;-87
2024/01/06 14:37:59;;;;;;;8.77;7.13;;;;;4.40;100737.00;;;;5459761;24;20428;-90
2024/01/06 14:49:31;;;;;;;7.50;6.33;;;;;4.40;100763.00;;;;4278951;24;21076;-91
2024/01/06 15:01:13;;;;;;;9.23;6.43;;;;;4.40;100773.00;;;;1643781;24;20485;-88
2024/01/06 15:06:44;;;;;;;10.20;6.03;;;;;4.30;100784.00;;;;3236423;24;20234;-86
2024/01/06 15:11:46;;;;;;;6.20;5.27;;;;;4.30;100792.00;;;;9968758;24;20718;-82
2024/01/06 15:16:47;;;;;;;5.80;4.33;;;;;4.30;100790.00;;;;9795556;29;20306;-81
2024/01/06 15:21:49;;;;;;;7.57;4.30;;;;;4.30;100800.00;;;;9797896;30;20253;-82
2024/01/06 15:26:51;;;;;;;5.63;3.80;;;;;4.30;100802.00;;;;9774278;30;20233;-81
2024/01/06 15:31:56;;;;;;;4.40;3.43;;;;;4.20;100809.00;;;;9782394;29;20236;-82
2024/01/06 15:36:58;;;;;;;14.07;4.30;;;;;4.30;100824.00;;;;9806052;30;20239;-82
2024/01/06 15:42:05;;;;;;;4.00;3.03;;;;;4.20;100822.00;;;;9768415;30;20240;-82
2024/01/06 15:47:06;;;;;;;4.47;3.27;;;;;4.20;100825.00;;;;9776570;30;20315;-81
2024/01/06 15:52:08;;;;;;;1.83;1.70;;;;;4.20;100826.00;;;;9798509;29;20322;-81
2024/01/06 15:57:09;;;;;;;3.63;2.50;;;;;4.20;100850.00;;;;9786938;29;20335;-81
2024/01/06 16:02:11;;;;;;;3.47;2.07;;;;;4.20;100861.00;;;;9800236;30;20220;-82
2024/01/06 16:07:12;;;;;;;5.40;2.20;;;;;4.20;100856.00;;;;9828205;29;20604;-82
2024/01/06 16:12:14;;;;;;;2.87;2.63;;;;;4.10;100861.00;;;;9800543;29;20812;-80
2024/01/06 16:17:16;;;;;;;3.03;2.73;;;;;4.10;100853.00;;;;9781128;30;20656;-82
2024/01/06 16:22:18;;;;;;;3.40;2.80;;;;;4.10;100869.00;;;;9932290;24;20301;-86
2024/01/06 16:27:20;;;;;;;4.70;3.13;;;;;4.10;100861.00;;;;10153208;24;20251;-85
2024/01/06 16:32:21;;;;;;;3.63;2.90;;;;;4.10;100861.00;;;;9984462;24;20747;-85
2024/01/06 16:37:23;;;;;;;6.77;3.73;;;;;4.10;100877.00;;;;9894958;25;20224;-85
2024/01/06 16:42:24;;;;;;;3.30;2.47;;;;;4.10;100869.00;;;;10569453;24;20274;-87
2024/01/06 16:47:25;;;;;;;3.87;2.60;;;;;4.10;100884.00;;;;9846392;29;20236;-87
2024/01/06 16:52:27;;;;;;;3.90;3.03;;;;;4.10;100887.00;;;;9853298;29;20228;-86
2024/01/06 16:57:31;;;;;;;4.33;3.37;;;;;4.10;100889.00;;;;9835847;29;20267;-87
2024/01/06 17:02:32;;;;;;;4.13;3.73;;;;;4.10;100889.00;;;;9833738;30;20245;-86
2024/01/06 17:07:44;;;;;;;4.07;3.67;;;;;4.10;100890.00;;;;9985591;24;20239;31
2024/01/06 17:12:46;;;;;;;5.03;3.77;;;;;4.10;100891.00;;;;10098494;24;20234;-85
2024/01/06 17:23:53;;;;;;;4.90;2.80;;;;;4.10;100891.00;;;;11665525;24;21258;-89
2024/01/06 17:29:06;;;;;;;4.07;2.97;;;;;4.10;100898.00;;;;11395953;24;20752;31
2024/01/06 17:34:08;;;;;;;4.63;3.17;;;;;4.10;100902.00;;;;9852390;29;20239;-81
2024/01/06 17:39:09;;;;;;;2.60;2.40;;;;;4.00;100903.00;;;;9870448;29;20292;-84
2024/01/06 17:44:11;;;;;;;3.50;1.70;;;;;4.00;100915.00;;;;9868540;29;20243;-83
2024/01/06 17:49:12;;;;;;;2.33;1.70;;;;;4.00;100915.00;;;;9885705;29;20329;-83
2024/01/06 17:54:14;;;;;;;3.20;2.00;;;;;4.00;100936.00;;;;9859331;29;20314;-83
2024/01/06 17:59:15;;;;;;;2.27;2.07;;;;;4.00;100934.00;;;;9865135;29;20246;-82
2024/01/06 18:04:16;;;;;;;2.30;2.07;;;;;4.00;100946.00;;;;9840815;29;20235;-83
2024/01/06 18:09:19;;;;;;;2.93;2.50;;;;;4.00;100946.00;;;;9859246;29;20795;-82
2024/01/06 18:14:20;;;;;;;7.73;4.33;;;;;4.00;100954.00;;;;9851658;29;20239;-82
2024/01/06 18:19:21;;;;;;;5.17;4.67;;;;;3.90;100955.00;;;;9835996;29;20231;-82
2024/01/06 18:24:23;;;;;;;5.33;4.80;;;;;3.90;100962.00;;;;9884651;29;20679;-83
2024/01/06 18:29:24;;;;;;;8.50;5.30;;;;;3.90;100961.00;;;;9872379;29;20361;-82
2024/01/06 18:34:26;;;;;;;6.53;4.73;;;;;3.90;100967.00;;;;9859751;29;20244;-81
2024/01/06 18:39:27;;;;;;;5.50;4.90;;;;;3.90;100966.00;;;;9841981;29;20239;-84
2024/01/06 18:44:29;;;;;;;6.00;4.63;;;;;3.90;100982.00;;;;9853284;29;21072;-84
2024/01/06 18:49:30;;;;;;;5.63;4.97;;;;;3.90;100984.00;;;;9866237;29;20300;-84
2024/01/06 18:54:34;;;;;;;6.67;5.17;;;;;3.90;100978.00;;;;9850478;29;20257;-83
2024/01/06 18:59:44;;;;;;;6.90;4.73;;;;;3.90;100985.00;;;;9853249;29;20329;-84
2024/01/06 19:04:46;;;;;;;8.70;4.73;;;;;3.90;100989.00;;;;9827457;29;20274;-84
2024/01/06 19:09:47;;;;;;;5.60;4.60;;;;;3.90;100985.00;;;;9813726;29;20345;-84
2024/01/06 19:14:49;;;;;;;5.43;4.57;;;;;3.90;100993.00;;;;9825552;30;20315;-84
2024/01/06 19:19:50;;;;;;;6.00;4.27;;;;;3.90;100989.00;;;;9810447;29;20835;-86
2024/01/06 19:24:52;;;;;;;7.10;5.10;;;;;3.80;101000.00;;;;9802724;29;20243;-84
2024/01/06 19:29:53;;;;;;;6.40;4.27;;;;;3.80;101010.00;;;;9826547;29;20228;-84
2024/01/06 19:34:54;;;;;;;6.10;4.50;;;;;3.80;101006.00;;;;9823648;29;20243;-85
2024/01/06 19:39:56;;;;;;;4.70;4.17;;;;;3.80;101015.00;;;;9826628;29;20788;-83
2024/01/06 19:44:57;;;;;;;5.43;4.80;;;;;3.80;101019.00;;;;9810254;29;20236;-84
2024/01/06 19:49:59;;;;;;;5.03;4.20;;;;;3.70;101017.00;;;;9821681;29;20289;-85
2024/01/06 19:55:01;;;;;;;6.43;4.10;;;;;3.70;101024.00;;;;9820944;29;20250;-85
2024/01/06 20:00:04;;;;;;;5.93;4.50;;;;;3.60;101016.00;;;;9842595;29;20228;-85
2024/01/06 20:05:10;;;;;;;4.87;4.00;;;;;3.60;101019.00;;;;9836190;29;20232;-85
2024/01/06 20:10:11;;;;;;;6.23;4.10;;;;;3.60;101018.00;;;;9822075;29;20319;-85
2024/01/06 20:15:13;;;;;;;4.60;4.00;;;;;3.60;101023.00;;;;9820708;29;20228;-84
2024/01/06 20:20:14;;;;;;;5.30;4.30;;;;;3.60;101026.00;;;;9836423;29;20238;-85
2024/01/06 20:25:15;;;;;;;4.83;4.33;;;;;3.60;101025.00;;;;9819624;29;20864;-85
2024/01/06 20:30:17;;;;;;;5.23;4.73;;;;;3.50;101021.00;;;;9833668;29;20267;-84
2024/01/06 20:35:19;;;;;;;6.10;4.77;;;;;3.30;101028.00;;;;9825042;29;20225;-83
2024/01/06 20:40:21;;;;;;;5.43;4.93;;;;;3.10;101026.00;;;;9833796;29;20239;-84
2024/01/06 20:45:22;;;;;;;6.73;5.13;;;;;3.00;101027.00;;;;9831406;29;20228;-85
2024/01/06 20:50:24;;;;;;;9.00;6.60;;;;;2.90;101029.00;;;;9819422;29;20236;-84
2024/01/06 20:55:25;;;;;;;8.70;6.87;;;;;2.70;101034.00;;;;9808652;29;20623;-84
2024/01/06 21:00:26;;;;;;;11.13;7.43;;;;;2.60;101028.00;;;;9851707;29;20317;-86
2024/01/06 21:05:28;;;;;;;9.17;6.27;;;;;2.60;101030.00;;;;9863807;29;20246;-84
2024/01/06 21:10:30;;;;;;;13.37;8.03;;;;;2.60;101040.00;;;;9836338;29;20585;-85
2024/01/06 21:15:31;;;;;;;10.67;7.30;;;;;2.60;101026.00;;;;9838531;29;20340;-86
2024/01/06 21:20:33;;;;;;;9.93;7.10;;;;;2.70;101032.00;;;;9871073;29;20232;-84
2024/01/06 21:25:34;;;;;;;8.60;7.37;;;;;2.70;101026.00;;;;9860506;29;20513;-86
2024/01/06 21:30:35;;;;;;;10.10;7.40;;;;;2.70;101032.00;;;;9876484;29;20239;-84
2024/01/06 21:35:37;;;;;;;12.57;7.53;;;;;2.70;101026.00;;;;9860518;29;20505;-84
2024/01/06 21:40:39;;;;;;;10.93;7.53;;;;;2.80;101028.00;;;;9856528;29;20226;-82
2024/01/06 21:45:40;;;;;;;10.57;7.20;;;;;2.80;101034.00;;;;9834062;29;20367;-84
2024/01/06 21:50:42;;;;;;;11.13;8.13;;;;;2.80;101040.00;;;;9861235;29;20219;-84
2024/01/06 21:55:43;;;;;;;10.37;8.50;;;;;2.80;101040.00;;;;9846640;29;20260;-86
2024/01/06 22:00:44;;;;;;;11.93;8.80;;;;;2.80;101057.00;;;;9857883;29;20468;-86
2024/01/06 22:05:45;;;;;;;11.00;8.57;;;;;2.80;101057.00;;;;9842693;30;20228;-87
2024/01/06 22:10:47;;;;;;;10.27;7.53;;;;;2.80;101046.00;;;;9851757;29;20751;-85
2024/01/06 22:15:48;;;;;;;9.70;7.37;;;;;2.80;101045.00;;;;9829718;29;20266;-84
2024/01/06 22:20:49;;;;;;;10.83;8.70;;;;;2.80;101057.00;;;;9815380;29;20251;-84
2024/01/06 22:25:51;;;;;;;12.77;8.57;;;;;2.80;101063.00;;;;9818442;29;20323;-84
2024/01/06 22:30:52;;;;;;;13.50;8.63;;;;;2.80;101060.00;;;;9829079;29;20232;-85
2024/01/06 22:35:53;;;;;;;11.63;8.93;;;;;2.80;101063.00;;;;9805747;29;20278;-84
2024/01/06 22:40:55;;;;;;;13.93;8.83;;;;;2.80;101067.00;;;;9836983;29;20228;-85
2024/01/06 22:45:56;;;;;;;11.63;7.60;;;;;2.80;101075.00;;;;9819396;29;20235;-85
2024/01/06 22:50:57;;;;;;;10.60;8.00;;;;;2.80;101085.00;;;;9813307;29;20926;-85
2024/01/06 22:55:58;;;;;;;10.97;8.43;;;;;2.90;101076.00;;;;9807620;29;20244;-84
2024/01/06 23:01:00;;;;;;;11.57;8.33;;;;;2.90;101084.00;;;;9841243;29;20231;-86
2024/01/06 23:06:05;;;;;;;13.03;9.23;;;;;2.80;101077.00;;;;9813955;29;20232;-85
2024/01/06 23:11:11;;;;;;;15.03;9.73;;;;;2.80;101080.00;;;;9815317;29;20235;-84
2024/01/06 23:16:13;;;;;;;14.60;9.67;;;;;2.80;101078.00;;;;9812152;29;20240;-83
2024/01/06 23:21:14;;;;;;;14.00;10.17;;;;;2.90;101092.00;;;;9823053;29;20236;-80
2024/01/06 23:26:15;;;;;;;14.50;10.57;;;;;2.90;101086.00;;;;9813256;29;20248;-80
2024/01/06 23:31:17;;;;;;;15.50;11.03;;;;;2.90;101095.00;;;;9827067;29;20259;-80
2024/01/06 23:36:19;;;;;;;14.70;10.50;;;;;2.90;101090.00;;;;9820206;29;20247;-80
2024/01/06 23:41:20;;;;;;;16.30;10.87;;;;;2.90;101100.00;;;;9810911;29;20335;-80
2024/01/06 23:46:25;;;;;;;15.17;11.50;;;;;2.90;101101.00;;;;9856536;29;20685;-80
2024/01/06 23:51:28;;;;;;;13.20;10.73;;;;;2.90;101105.00;;;;9842325;29;20247;-80
2024/01/06 23:56:30;;;;;;;17.17;11.70;;;;;2.90;101113.00;;;;9815508;29;20240;-79
